createdAt,value
2018-04-15T06:14:23.399Z,1007.18
2018-04-15T06:15:22.793Z,1007.12
2018-04-15T06:17:16.256Z,1007.11
2018-04-15T06:18:16.110Z,1007.07
2018-04-15T15:19:23.194Z,1002.76
2018-04-15T16:50:05.206Z,1002.58
2018-04-15T16:51:05.154Z,1002.61
2018-04-15T17:30:18.365Z,1002.76
2018-04-15T17:31:18.242Z,1002.78
2018-04-15T17:33:12.652Z,1002.82
2018-04-15T17:34:12.644Z,1002.72
2018-04-15T17:36:05.977Z,1002.80
2018-04-15T17:37:05.980Z,1002.81
2018-04-15T17:38:59.417Z,1002.83
2018-04-15T17:39:59.368Z,1002.86
2018-04-15T17:55:06.240Z,1002.79
2018-04-15T18:45:44.063Z,1003.06
2018-04-15T18:46:44.048Z,1003.05
2018-04-15T18:48:37.519Z,1003.08
2018-04-15T18:49:37.417Z,1003.05
2018-04-15T18:51:32.374Z,1003.07
2018-04-15T18:52:31.779Z,1003.11
2018-04-15T18:54:26.201Z,1003.10
2018-04-15T18:55:26.159Z,1003.07
2018-04-15T18:57:42.437Z,1003.06
2018-04-15T18:58:42.444Z,1003.11
2018-04-15T19:00:36.289Z,1003.06
2018-04-15T19:01:37.414Z,1003.07
2018-04-15T19:03:38.790Z,1003.08
2018-04-15T19:04:33.688Z,1003.07
2018-04-15T19:06:27.137Z,1003.09
2018-04-15T19:07:27.101Z,1003.10
2018-04-15T19:09:20.942Z,1003.10
2018-04-15T19:10:20.510Z,1003.09
2018-04-15T19:12:14.914Z,1003.12
2018-04-15T19:13:14.906Z,1003.08
2018-04-15T19:15:08.352Z,1003.09
2018-04-15T19:16:08.311Z,1003.07
2018-04-15T19:18:01.716Z,1003.12
2018-04-15T19:19:01.779Z,1003.14
2018-04-15T19:20:55.163Z,1003.14
2018-04-15T19:21:55.124Z,1003.13
2018-04-15T19:23:48.630Z,1003.12
2018-04-15T19:24:48.533Z,1003.11
2018-04-15T19:26:41.924Z,1003.15
2018-04-15T19:27:41.934Z,1003.08
2018-04-15T19:29:35.428Z,1003.14
2018-04-15T19:30:35.392Z,1003.14
2018-04-15T19:32:28.742Z,1003.17
2018-04-15T19:33:28.742Z,1003.17
2018-04-15T19:35:23.337Z,1003.20
2018-04-15T19:36:22.170Z,1003.21
2018-04-15T19:38:15.592Z,1003.20
2018-04-15T19:39:15.568Z,1003.22
2018-04-15T19:41:09.052Z,1003.23
2018-04-15T19:42:09.079Z,1003.25
2018-04-15T19:44:03.719Z,1003.25
2018-04-15T19:45:03.369Z,1003.22
2018-04-15T19:46:56.773Z,1003.17
2018-04-15T19:47:56.806Z,1003.16
2018-04-15T19:49:50.226Z,1003.18
2018-04-15T19:50:50.183Z,1003.18
2018-04-15T19:52:44.583Z,1003.19
2018-04-15T19:53:44.649Z,1003.16
2018-04-15T19:55:38.033Z,1003.18
2018-04-15T19:56:37.994Z,1003.14
2018-04-15T19:58:31.390Z,1003.13
2018-04-15T19:59:31.399Z,1003.11
2018-04-15T20:01:24.847Z,1003.15
2018-04-15T20:02:24.807Z,1003.13
2018-04-15T20:04:18.253Z,1003.10
2018-04-15T20:05:18.259Z,1003.13
2018-04-15T20:07:11.613Z,1003.16
2018-04-15T20:08:11.616Z,1003.15
2018-04-15T20:10:06.072Z,1003.13
2018-04-15T20:11:06.167Z,1003.13
2018-04-15T20:12:59.422Z,1003.14
2018-04-15T20:13:59.426Z,1003.11
2018-04-15T20:15:53.876Z,1003.07
2018-04-15T20:16:53.834Z,1003.05
2018-04-15T20:18:47.278Z,1003.02
2018-04-15T20:19:47.243Z,1003.01
2018-04-15T20:21:40.646Z,1003.01
2018-04-15T20:22:40.643Z,1002.96
2018-04-15T20:24:34.089Z,1002.95
2018-04-15T20:25:34.047Z,1002.97
2018-04-15T20:27:27.450Z,1002.90
2018-04-15T20:28:27.453Z,1002.88
2018-04-15T20:30:20.901Z,1002.94
2018-04-15T20:31:20.856Z,1002.90
2018-04-15T20:33:14.258Z,1002.89
2018-04-15T20:34:14.262Z,1002.86
2018-04-15T20:36:07.740Z,1002.84
2018-04-15T20:37:07.669Z,1002.83
2018-04-15T20:39:01.116Z,1002.80
2018-04-15T20:40:01.078Z,1002.79
2018-04-15T20:41:54.473Z,1002.80
2018-04-15T20:42:54.479Z,1002.79
2018-04-15T20:44:47.934Z,1002.79
2018-04-15T20:45:47.899Z,1002.77
2018-04-15T20:47:41.297Z,1002.81
2018-04-15T20:48:41.291Z,1002.85
2018-04-15T20:50:34.736Z,1002.88
2018-04-15T20:51:34.695Z,1002.89
2018-04-15T20:53:28.096Z,1002.89
2018-04-15T20:54:28.102Z,1002.86
2018-04-15T20:56:22.546Z,1002.92
2018-04-15T20:57:22.506Z,1002.92
2018-04-15T20:59:15.958Z,1002.90
2018-04-15T21:00:15.909Z,1002.93
2018-04-15T21:02:09.308Z,1002.96
2018-04-15T21:03:09.317Z,1002.93
2018-04-15T21:05:02.767Z,1002.97
2018-04-15T21:06:02.730Z,1002.93
2018-04-15T21:07:56.123Z,1002.94
2018-04-15T21:08:56.125Z,1002.94
2018-04-15T21:10:49.574Z,1002.91
2018-04-15T21:11:49.541Z,1002.90
2018-04-15T21:13:42.930Z,1002.95
2018-04-15T21:14:42.937Z,1003.01
2018-04-15T21:16:36.417Z,1003.02
2018-04-15T21:17:36.343Z,1003.05
2018-04-15T21:19:29.792Z,1003.12
2018-04-15T21:20:29.746Z,1003.14
2018-04-15T21:22:23.153Z,1003.20
2018-04-15T21:23:23.155Z,1003.20
2018-04-15T21:25:16.605Z,1003.22
2018-04-15T21:26:16.563Z,1003.22
2018-04-15T21:28:09.984Z,1003.27
2018-04-15T21:29:10.034Z,1003.27
2018-04-15T21:31:04.414Z,1003.28
2018-04-15T21:32:04.373Z,1003.26
2018-04-15T21:33:57.771Z,1003.25
2018-04-15T21:34:57.775Z,1003.26
2018-04-15T21:36:51.223Z,1003.29
2018-04-15T21:37:51.181Z,1003.27
2018-04-15T21:39:44.626Z,1003.27
2018-04-15T21:40:44.584Z,1003.28
2018-04-15T21:42:37.983Z,1003.30
2018-04-15T21:43:37.990Z,1003.28
2018-04-15T21:45:31.437Z,1003.33
2018-04-15T21:46:31.395Z,1003.28
2018-04-15T21:48:24.795Z,1003.34
2018-04-15T21:49:24.799Z,1003.28
2018-04-15T21:51:18.245Z,1003.30
2018-04-15T21:52:18.210Z,1003.29
2018-04-15T21:54:11.644Z,1003.33
2018-04-15T21:55:11.611Z,1003.39
2018-04-15T21:57:05.056Z,1003.38
2018-04-15T21:58:05.018Z,1003.37
2018-04-15T21:59:58.463Z,1003.28
2018-04-15T22:00:58.417Z,1003.26
2018-04-15T22:02:51.819Z,1003.27
2018-04-15T22:03:51.825Z,1003.23
2018-04-15T22:05:45.270Z,1003.22
2018-04-15T22:06:45.231Z,1003.19
2018-04-15T22:08:38.628Z,1003.14
2018-04-15T22:09:38.633Z,1003.18
2018-04-15T22:11:32.079Z,1003.19
2018-04-15T22:12:32.042Z,1003.17
2018-04-15T22:14:25.480Z,1003.16
2018-04-15T22:15:25.442Z,1003.13
2018-04-15T22:17:18.885Z,1003.14
2018-04-15T22:18:18.844Z,1003.12
2018-04-15T22:20:12.291Z,1003.08
2018-04-15T22:21:12.246Z,1003.08
2018-04-15T22:23:05.644Z,1003.08
2018-04-15T22:24:05.651Z,1003.05
2018-04-15T22:25:59.099Z,1003.03
2018-04-15T22:26:59.056Z,1003.01
2018-04-15T22:28:52.502Z,1003.01
2018-04-15T22:29:52.480Z,1003.01
2018-04-15T22:31:45.908Z,1003.02
2018-04-15T22:32:45.872Z,1003.06
2018-04-15T22:34:39.266Z,1003.01
2018-04-15T22:35:39.269Z,1002.99
2018-04-15T22:37:32.716Z,1003.02
2018-04-15T22:38:32.673Z,1003.03
2018-04-15T22:40:26.124Z,1003.03
2018-04-15T22:41:26.079Z,1003.06
2018-04-15T22:43:19.504Z,1003.10
2018-04-15T22:44:19.487Z,1003.10
2018-04-15T22:46:12.932Z,1003.07
2018-04-15T22:47:12.900Z,1003.11
2018-04-15T22:49:06.288Z,1003.10
2018-04-15T22:50:06.294Z,1003.09
2018-04-15T22:51:59.736Z,1003.04
2018-04-15T22:52:59.693Z,1003.04
2018-04-15T22:54:54.091Z,1003.03
2018-04-15T22:55:54.099Z,1003.08
2018-04-15T22:57:47.571Z,1003.07
2018-04-15T22:58:47.525Z,1003.03
2018-04-15T23:00:40.973Z,1003.06
2018-04-15T23:01:40.930Z,1003.07
2018-04-15T23:03:34.329Z,1003.09
2018-04-15T23:04:34.331Z,1003.16
2018-04-15T23:06:27.778Z,1003.13
2018-04-15T23:07:27.737Z,1003.06
2018-04-15T23:09:21.131Z,1003.12
2018-04-15T23:10:21.138Z,1003.12
2018-04-15T23:12:14.580Z,1003.07
2018-04-15T23:13:14.538Z,1003.07
2018-04-15T23:15:07.937Z,1003.01
2018-04-15T23:16:07.941Z,1002.95
2018-04-15T23:18:01.386Z,1002.97
2018-04-15T23:19:01.342Z,1002.94
2018-04-15T23:20:54.788Z,1002.90
2018-04-15T23:21:54.761Z,1002.88
2018-04-15T23:23:48.144Z,1002.92
2018-04-15T23:24:48.147Z,1002.87
2018-04-15T23:26:42.592Z,1002.90
2018-04-15T23:27:42.549Z,1002.93
2018-04-15T23:29:35.944Z,1002.94
2018-04-15T23:30:35.949Z,1002.95
2018-04-15T23:32:30.392Z,1002.97
2018-04-15T23:33:30.348Z,1002.97
2018-04-15T23:35:23.744Z,1003.00
2018-04-15T23:36:23.747Z,1002.99
2018-04-15T23:38:21.950Z,1002.99
2018-04-15T23:39:21.910Z,1002.98
2018-04-15T23:41:15.354Z,1002.97
2018-04-15T23:42:15.313Z,1002.98
2018-04-15T23:44:08.710Z,1003.02
2018-04-15T23:45:08.713Z,1003.03
2018-04-15T23:47:02.159Z,1003.03
2018-04-15T23:48:02.118Z,1003.09
2018-04-15T23:49:55.512Z,1003.06
2018-04-15T23:50:55.523Z,1003.11
2018-04-15T23:52:48.958Z,1003.08
2018-04-15T23:53:48.915Z,1003.11
2018-04-15T23:55:42.320Z,1003.06
2018-04-15T23:56:42.312Z,1003.04
2018-04-15T23:58:39.932Z,1002.99
2018-04-15T23:59:39.891Z,1002.95
